Terminal Aerodrome Forecast
Issued by NWS

Home | Current Version | Previous Version | Text Only | Print | Product List | Glossary On
Versions: 1 2 3 4 5 6 7 8 9 10 11 12 13 14 15
000
FTUS42 KTBW 260525 AAA
TAFRSW
TAF AMD
KRSW 260525Z 2605/2706 04007KT P6SM FEW020 SCT070 BKN250
     FM261600 07008KT P6SM VCTS SCT025CB BKN040
     FM270100 07005KT P6SM SCT035 BKN250=

USA.gov is the U.S. government's official web portal to all federal, state and local government web resources and services.